Mount Carmel, Kentucky
Current Conditions -  °F | °C
As of 12:55 PM on Sunday 21 Dec 2014 (Local Time) from KFGX Reporting Station
Overcast Overcast  
Wind Chill: 28°   Ceiling: 1400
Heat Index: 33°   Visibility: 10mi
Dew Point: 27°   Wind: 5mph
Humidity: 79%   Direction: 140°SE
Pressure: 30.25"   Gusts: NA
Location:  38.436°N, 83.6931°W
Report Text: KFGX 211755Z AUTO 14004KT 10SM OVC014 00/M03 A3025 RMK AO2 T00041028 10008 21015
Loading
Personal Weather Stations






























Interactive Weather Map New forecast layout! Learn more

10-Day Weather Forecast

Advertisements
Track Severe Weather on mobile